createdAt,value
2022-12-09T00:01:29.664Z,13.57
2022-12-09T00:03:56.988Z,11.53
2022-12-09T00:06:26.658Z,13.13
2022-12-09T00:08:54.723Z,11.23
2022-12-09T00:11:22.453Z,10.50
2022-12-09T00:13:56.931Z,11.13
2022-12-09T00:16:24.766Z,11.40
2022-12-09T00:18:52.051Z,12.70
2022-12-09T00:21:21.309Z,11.53
2022-12-09T00:23:49.018Z,11.80
2022-12-09T00:26:16.413Z,11.90
2022-12-09T00:28:43.602Z,11.23
2022-12-09T00:31:14.454Z,12.43
2022-12-09T00:33:41.498Z,11.87
2022-12-09T00:36:11.135Z,13.47
2022-12-09T00:38:38.621Z,12.20
2022-12-09T00:41:05.717Z,11.57
2022-12-09T00:43:33.052Z,13.13
2022-12-09T00:45:59.947Z,12.23
2022-12-09T00:48:27.292Z,13.70
2022-12-09T00:50:54.429Z,13.33
2022-12-09T00:53:21.442Z,13.17
2022-12-09T00:55:48.389Z,11.67
2022-12-09T00:58:15.021Z,11.80
2022-12-09T01:00:41.951Z,13.07
2022-12-09T01:03:13.910Z,13.57
2022-12-09T01:05:41.823Z,12.43
2022-12-09T01:08:09.922Z,13.17
2022-12-09T01:10:37.927Z,12.67
2022-12-09T01:13:04.582Z,11.20
2022-12-09T01:15:31.303Z,13.37
2022-12-09T01:17:57.932Z,14.50
2022-12-09T01:20:25.176Z,12.90
2022-12-09T01:22:51.993Z,12.80
2022-12-09T01:25:18.905Z,12.47
2022-12-09T01:27:45.747Z,13.17
2022-12-09T01:30:13.989Z,12.70
2022-12-09T01:32:41.748Z,12.33
2022-12-09T01:35:08.888Z,13.83
2022-12-09T01:37:36.899Z,12.43
2022-12-09T01:40:07.429Z,13.17
2022-12-09T01:42:34.543Z,13.03
2022-12-09T01:45:19.875Z,14.43
2022-12-09T01:47:56.412Z,14.57
2022-12-09T01:50:25.287Z,12.90
2022-12-09T01:52:51.943Z,16.03
2022-12-09T01:55:19.684Z,13.97
2022-12-09T01:57:46.670Z,18.63
2022-12-09T02:00:14.069Z,15.13
2022-12-09T02:02:43.690Z,14.90
2022-12-09T02:05:10.923Z,15.97
2022-12-09T02:07:38.248Z,16.03
2022-12-09T02:10:11.300Z,17.13
2022-12-09T02:12:56.935Z,17.60
2022-12-09T02:15:53.337Z,15.10
2022-12-09T02:18:40.912Z,15.00
2022-12-09T02:21:16.521Z,15.93
2022-12-09T02:24:00.414Z,17.30
2022-12-09T02:26:50.723Z,15.93
2022-12-09T02:29:28.288Z,16.03
2022-12-09T02:32:29.395Z,18.80
2022-12-09T02:35:05.819Z,15.87
2022-12-09T02:37:57.668Z,17.40
2022-12-09T02:40:47.982Z,16.57
2022-12-09T02:43:17.916Z,17.47
2022-12-09T02:45:45.285Z,16.70
2022-12-09T02:48:16.618Z,16.63
2022-12-09T02:50:46.392Z,16.30
2022-12-09T02:53:14.736Z,15.43
2022-12-09T02:55:44.103Z,16.07
2022-12-09T02:58:11.118Z,14.17
2022-12-09T03:00:39.477Z,15.53
2022-12-09T03:03:10.580Z,12.80
2022-12-09T03:06:01.523Z,17.60
2022-12-09T03:08:31.663Z,16.67
2022-12-09T03:11:02.936Z,17.57
2022-12-09T03:14:03.552Z,16.43
2022-12-09T03:16:35.938Z,15.23
2022-12-09T03:19:26.690Z,16.60
2022-12-09T03:21:59.829Z,16.27
2022-12-09T03:24:33.280Z,15.50
2022-12-09T03:27:03.680Z,16.63
2022-12-09T03:29:33.876Z,15.60
2022-12-09T03:32:01.384Z,14.73
2022-12-09T03:34:32.300Z,17.30
2022-12-09T03:37:01.889Z,14.90
2022-12-09T03:39:32.422Z,15.50
2022-12-09T03:42:03.767Z,15.43
2022-12-09T03:44:37.809Z,13.83
2022-12-09T03:47:06.866Z,14.30
2022-12-09T03:49:33.922Z,14.83
2022-12-09T03:52:22.734Z,13.50
2022-12-09T03:55:00.537Z,14.80
2022-12-09T03:57:29.192Z,13.80
2022-12-09T04:00:00.765Z,15.43
2022-12-09T04:02:28.307Z,12.73
2022-12-09T04:04:55.283Z,14.03
2022-12-09T04:07:22.203Z,14.33
2022-12-09T04:09:49.055Z,13.90
2022-12-09T04:12:15.791Z,14.60
2022-12-09T04:14:42.604Z,14.23
2022-12-09T04:17:11.217Z,13.73
2022-12-09T04:19:38.215Z,16.50
2022-12-09T04:22:04.844Z,15.03
2022-12-09T04:24:31.700Z,14.50
2022-12-09T04:26:58.631Z,18.07
2022-12-09T04:29:25.328Z,13.63
2022-12-09T04:31:52.119Z,13.57
2022-12-09T04:34:18.776Z,13.77
2022-12-09T04:36:45.583Z,13.30
2022-12-09T04:39:12.136Z,15.43
2022-12-09T04:41:38.951Z,15.13
2022-12-09T04:44:06.442Z,14.10
2022-12-09T04:46:33.484Z,15.07
2022-12-09T04:49:00.564Z,14.37
2022-12-09T04:51:27.355Z,16.47
2022-12-09T04:53:54.948Z,17.30
2022-12-09T04:56:23.091Z,15.27
2022-12-09T04:58:50.805Z,16.27
2022-12-09T05:01:28.225Z,16.53
2022-12-09T05:03:57.308Z,18.03
2022-12-09T05:06:24.525Z,15.73
2022-12-09T05:08:52.059Z,16.77
2022-12-09T05:11:20.547Z,16.00
2022-12-09T05:13:47.924Z,14.27
2022-12-09T05:16:17.474Z,17.13
2022-12-09T05:18:46.613Z,17.77
2022-12-09T05:21:19.327Z,16.73
2022-12-09T05:23:46.679Z,17.87
2022-12-09T05:26:16.919Z,16.87
2022-12-09T05:28:44.327Z,16.07
2022-12-09T05:31:19.727Z,16.87
2022-12-09T05:33:48.802Z,15.03
2022-12-09T05:36:17.865Z,19.93
2022-12-09T05:38:45.045Z,17.43
2022-12-09T05:41:12.168Z,17.93
2022-12-09T05:43:39.082Z,16.97
2022-12-09T05:46:06.720Z,18.97
2022-12-09T05:48:34.494Z,16.83
2022-12-09T05:51:05.939Z,16.47
2022-12-09T05:53:33.460Z,17.40
2022-12-09T05:56:00.875Z,16.43
2022-12-09T05:58:27.787Z,17.40
2022-12-09T06:00:58.004Z,19.37
2022-12-09T06:03:25.406Z,18.77
2022-12-09T06:05:52.487Z,20.03
2022-12-09T06:08:19.607Z,19.33
2022-12-09T06:10:46.431Z,19.53
2022-12-09T06:13:13.950Z,19.10
2022-12-09T06:15:40.976Z,17.10
2022-12-09T06:18:08.141Z,18.00
2022-12-09T06:20:34.912Z,21.80
2022-12-09T06:23:01.891Z,19.87
2022-12-09T06:25:28.594Z,18.20
2022-12-09T06:27:55.220Z,20.57
2022-12-09T06:30:21.790Z,19.57
2022-12-09T06:32:49.164Z,22.27
2022-12-09T06:35:16.786Z,18.93
2022-12-09T06:37:43.722Z,21.47
2022-12-09T06:40:11.174Z,19.47
2022-12-09T06:42:38.341Z,23.30
2022-12-09T06:45:06.538Z,20.47
2022-12-09T06:47:33.855Z,22.20
2022-12-09T06:50:06.610Z,21.60
2022-12-09T06:52:34.329Z,23.80
2022-12-09T06:55:01.455Z,19.33
2022-12-09T06:57:28.173Z,18.63
2022-12-09T06:59:55.620Z,21.90
2022-12-09T07:02:22.822Z,20.60
2022-12-09T07:04:54.304Z,20.83
2022-12-09T07:07:21.898Z,20.20
2022-12-09T07:09:49.420Z,22.07
2022-12-09T07:12:16.552Z,23.87
2022-12-09T07:14:43.252Z,22.47
2022-12-09T07:17:19.405Z,23.40
2022-12-09T07:19:47.312Z,21.20
2022-12-09T07:22:14.649Z,20.83
2022-12-09T07:24:41.965Z,21.93
2022-12-09T07:27:15.777Z,21.97
2022-12-09T07:29:45.806Z,23.27
2022-12-09T07:32:12.574Z,21.03
2022-12-09T07:34:39.733Z,24.37
2022-12-09T07:37:06.603Z,24.77
2022-12-09T07:39:33.582Z,23.53
2022-12-09T07:42:00.350Z,21.87
2022-12-09T07:44:30.444Z,27.47
2022-12-09T07:46:57.507Z,21.57
2022-12-09T07:49:24.900Z,23.10
2022-12-09T07:51:52.166Z,26.83
2022-12-09T07:54:20.521Z,22.87
2022-12-09T07:56:47.833Z,26.87
2022-12-09T07:59:15.510Z,26.50
2022-12-09T08:01:42.949Z,26.37
2022-12-09T08:04:10.232Z,24.67
2022-12-09T08:06:38.012Z,24.67
2022-12-09T08:09:10.519Z,22.90
2022-12-09T08:11:37.835Z,23.97
2022-12-09T08:14:12.173Z,22.20
2022-12-09T08:16:40.575Z,23.47
2022-12-09T08:19:08.042Z,24.10
2022-12-09T08:21:35.308Z,26.10
2022-12-09T08:24:06.028Z,25.67
2022-12-09T08:26:34.088Z,24.67
2022-12-09T08:29:01.346Z,27.83
2022-12-09T08:31:29.147Z,29.27
2022-12-09T08:33:56.830Z,26.27
2022-12-09T08:36:26.429Z,32.20
2022-12-09T08:38:53.836Z,33.37
2022-12-09T08:41:35.373Z,33.57
2022-12-09T08:44:12.174Z,45.50
2022-12-09T08:46:41.012Z,75.03
2022-12-09T08:49:09.156Z,91.67
2022-12-09T08:51:36.836Z,50.87
2022-12-09T08:54:05.309Z,39.87
2022-12-09T08:56:33.704Z,36.80
2022-12-09T08:59:00.639Z,33.43
2022-12-09T09:01:38.095Z,30.20
2022-12-09T09:04:08.735Z,35.17
2022-12-09T09:06:37.895Z,31.97
2022-12-09T09:09:06.840Z,33.47
2022-12-09T09:11:34.392Z,30.57
2022-12-09T09:14:04.159Z,28.47
2022-12-09T09:16:31.372Z,34.97
2022-12-09T09:18:58.287Z,30.43
2022-12-09T09:21:26.949Z,30.27
2022-12-09T09:23:54.081Z,33.43
2022-12-09T09:26:23.856Z,34.07
2022-12-09T09:28:51.647Z,31.90
2022-12-09T09:31:20.461Z,31.63
2022-12-09T09:33:47.995Z,31.37
2022-12-09T09:36:18.895Z,30.00
2022-12-09T09:38:45.915Z,28.67
2022-12-09T09:41:41.853Z,31.60
2022-12-09T09:44:39.527Z,27.13
2022-12-09T09:47:28.574Z,29.87
2022-12-09T09:50:18.960Z,29.27
2022-12-09T09:52:46.015Z,29.63
2022-12-09T09:55:18.348Z,24.40
2022-12-09T09:58:20.831Z,27.43
2022-12-09T10:00:58.306Z,25.07
2022-12-09T10:03:56.344Z,28.73
2022-12-09T10:06:31.481Z,25.80
2022-12-09T10:09:05.077Z,22.20
2022-12-09T10:11:56.394Z,31.40
2022-12-09T10:14:35.161Z,25.87
2022-12-09T10:17:24.059Z,29.20
2022-12-09T10:19:55.541Z,28.07
2022-12-09T10:22:27.105Z,28.07
2022-12-09T10:24:57.139Z,30.77
2022-12-09T10:27:27.163Z,29.47
2022-12-09T10:30:00.863Z,32.23
2022-12-09T10:32:31.576Z,28.97
2022-12-09T10:34:59.268Z,32.37
2022-12-09T10:37:35.221Z,32.73
2022-12-09T10:40:06.510Z,38.27
2022-12-09T10:43:05.022Z,39.57
2022-12-09T10:46:00.181Z,40.90
2022-12-09T10:48:33.476Z,39.63
2022-12-09T10:51:22.223Z,39.67
2022-12-09T10:54:06.956Z,36.53
2022-12-09T10:56:39.386Z,35.37
2022-12-09T10:59:27.240Z,39.27
2022-12-09T11:01:59.970Z,40.43
2022-12-09T11:04:43.157Z,41.63
2022-12-09T11:07:13.338Z,36.57
2022-12-09T11:09:58.830Z,36.87
2022-12-09T11:12:32.127Z,36.27
2022-12-09T11:15:30.478Z,39.03
2022-12-09T11:18:06.984Z,39.50
2022-12-09T11:20:34.866Z,38.57
2022-12-09T11:23:17.120Z,37.97
2022-12-09T11:26:00.261Z,39.87
2022-12-09T11:28:30.378Z,39.27
2022-12-09T11:31:29.080Z,35.97
2022-12-09T11:34:27.198Z,35.60
2022-12-09T11:36:57.757Z,37.27
2022-12-09T11:39:28.825Z,39.87
2022-12-09T11:42:17.184Z,32.30
2022-12-09T11:45:06.541Z,31.03
2022-12-09T11:48:13.591Z,29.87
2022-12-09T11:50:32.187Z,31.87
2022-12-09T11:53:24.993Z,34.60
2022-12-09T11:56:13.751Z,28.97
2022-12-09T11:58:49.717Z,26.17
2022-12-09T12:01:27.668Z,24.87
2022-12-09T12:03:57.716Z,24.33
2022-12-09T12:06:29.141Z,25.27
2022-12-09T12:09:11.586Z,23.50
2022-12-09T12:11:55.186Z,24.10
2022-12-09T12:14:26.727Z,22.73
2022-12-09T12:17:09.671Z,19.43
2022-12-09T12:19:40.883Z,18.90
2022-12-09T12:22:47.007Z,22.07
2022-12-09T12:25:40.722Z,21.17
2022-12-09T12:28:22.689Z,20.87
2022-12-09T12:31:01.643Z,23.00
2022-12-09T12:34:22.815Z,20.83
2022-12-09T12:36:57.212Z,25.30
2022-12-09T12:39:44.736Z,19.10
2022-12-09T12:43:04.994Z,17.77
2022-12-09T12:46:02.438Z,18.97
2022-12-09T12:48:57.611Z,17.67
2022-12-09T12:51:35.123Z,15.33
2022-12-09T12:54:17.168Z,16.53
2022-12-09T12:57:00.905Z,16.97
2022-12-09T12:59:57.741Z,18.63
2022-12-09T13:02:41.276Z,16.60
2022-12-09T13:05:25.970Z,21.07
2022-12-09T13:08:07.835Z,18.83
2022-12-09T13:10:41.972Z,18.90
2022-12-09T13:13:36.493Z,21.97
2022-12-09T13:16:18.056Z,19.17
2022-12-09T13:18:44.972Z,18.97
2022-12-09T13:21:12.497Z,20.70
2022-12-09T13:24:01.876Z,18.40
2022-12-09T13:26:44.518Z,16.90
2022-12-09T13:29:36.021Z,17.10
2022-12-09T13:32:40.447Z,18.00
2022-12-09T13:35:14.226Z,19.80
2022-12-09T13:37:43.552Z,15.50
2022-12-09T13:40:32.416Z,18.07
2022-12-09T13:43:01.700Z,18.90
2022-12-09T13:45:47.701Z,19.77
2022-12-09T13:48:17.219Z,15.30
2022-12-09T13:50:57.275Z,16.47
2022-12-09T13:53:29.431Z,18.70
2022-12-09T13:56:05.435Z,16.63
2022-12-09T13:58:37.742Z,17.97
2022-12-09T14:01:13.391Z,19.00
2022-12-09T14:03:58.062Z,17.70
2022-12-09T14:06:38.869Z,18.17
2022-12-09T14:09:30.255Z,17.80
2022-12-09T14:12:00.354Z,18.20
2022-12-09T14:14:26.840Z,15.90
2022-12-09T14:16:55.262Z,17.93
2022-12-09T14:19:24.789Z,17.97
2022-12-09T14:22:22.905Z,18.00
2022-12-09T14:24:54.252Z,19.93
2022-12-09T14:27:29.475Z,17.33
2022-12-09T14:29:57.104Z,22.40
2022-12-09T14:32:52.750Z,20.93
2022-12-09T14:35:41.815Z,20.43
2022-12-09T14:38:32.631Z,24.80
2022-12-09T14:41:18.202Z,17.70
2022-12-09T14:43:50.638Z,19.37
2022-12-09T14:46:33.685Z,16.27
2022-12-09T14:49:13.519Z,18.37
2022-12-09T14:51:50.109Z,18.27
2022-12-09T14:54:33.285Z,17.77
2022-12-09T14:57:03.615Z,15.47
2022-12-09T14:59:31.930Z,15.20
2022-12-09T15:02:03.496Z,18.00
2022-12-09T15:04:42.053Z,18.20
2022-12-09T15:07:25.046Z,15.23
2022-12-09T15:10:30.806Z,14.30
2022-12-09T15:13:00.206Z,16.83
2022-12-09T15:15:39.473Z,18.37
2022-12-09T15:18:20.806Z,16.47
2022-12-09T15:20:56.543Z,16.67
2022-12-09T15:23:30.356Z,15.27
2022-12-09T15:26:00.518Z,19.33
2022-12-09T15:28:32.374Z,17.57
2022-12-09T15:31:02.026Z,18.23
2022-12-09T15:33:31.340Z,15.70
2022-12-09T15:36:08.746Z,15.40
2022-12-09T15:38:43.993Z,14.10
2022-12-09T15:41:29.465Z,18.27
2022-12-09T15:44:00.498Z,15.67
2022-12-09T15:46:28.231Z,16.00
2022-12-09T15:48:58.512Z,15.53
2022-12-09T15:51:26.764Z,17.30
2022-12-09T15:53:58.417Z,26.87
2022-12-09T15:56:46.941Z,16.77
2022-12-09T15:59:33.801Z,17.07
2022-12-09T16:02:01.140Z,17.87
2022-12-09T16:04:36.628Z,17.27
2022-12-09T16:07:08.466Z,17.93
2022-12-09T16:09:35.564Z,17.53
2022-12-09T16:12:02.233Z,18.83
2022-12-09T16:14:44.264Z,17.23
2022-12-09T16:17:21.526Z,20.57
2022-12-09T16:19:48.430Z,19.17
2022-12-09T16:22:14.937Z,22.40
2022-12-09T16:25:16.615Z,20.60
2022-12-09T16:27:48.361Z,21.57
2022-12-09T16:30:21.355Z,21.87
2022-12-09T16:32:51.772Z,20.77
2022-12-09T16:35:40.220Z,17.27
2022-12-09T16:38:16.044Z,16.90
2022-12-09T16:40:45.393Z,19.17
2022-12-09T16:43:17.828Z,18.70
2022-12-09T16:45:49.362Z,19.47
2022-12-09T16:48:17.315Z,19.37
2022-12-09T16:50:49.150Z,20.13
2022-12-09T16:53:22.124Z,19.63
2022-12-09T16:55:52.084Z,16.10
2022-12-09T16:58:19.223Z,17.67
2022-12-09T17:00:46.768Z,18.87
2022-12-09T17:03:26.425Z,24.63
2022-12-09T17:05:52.967Z,20.13
2022-12-09T17:08:19.617Z,20.73
2022-12-09T17:10:46.340Z,20.30
2022-12-09T17:13:12.943Z,19.27
2022-12-09T17:15:42.571Z,22.30
2022-12-09T17:18:10.594Z,23.53
2022-12-09T17:20:38.233Z,22.10
2022-12-09T17:23:05.327Z,19.33
2022-12-09T17:25:33.253Z,21.17
2022-12-09T17:28:04.963Z,21.77
2022-12-09T17:30:31.522Z,19.13
2022-12-09T17:33:00.942Z,21.50
2022-12-09T17:35:27.544Z,18.70
2022-12-09T17:37:54.194Z,19.63
2022-12-09T17:40:20.804Z,18.20
2022-12-09T17:42:47.406Z,20.43
2022-12-09T17:45:13.947Z,18.90
2022-12-09T17:47:40.543Z,16.27
2022-12-09T17:50:07.668Z,16.43
2022-12-09T17:52:34.610Z,17.93
2022-12-09T17:55:01.238Z,18.33
2022-12-09T17:57:27.854Z,17.07
2022-12-09T17:59:54.387Z,16.43
2022-12-09T18:02:21.092Z,18.73
2022-12-09T18:04:47.690Z,19.40
2022-12-09T18:07:14.290Z,19.50
2022-12-09T18:09:40.863Z,16.23
2022-12-09T18:12:07.519Z,14.50
2022-12-09T18:14:34.122Z,13.87
2022-12-09T18:17:01.291Z,16.07
2022-12-09T18:19:29.843Z,14.43
2022-12-09T18:21:56.712Z,15.50
2022-12-09T18:24:23.627Z,13.27
2022-12-09T18:26:50.276Z,12.10
2022-12-09T18:29:16.837Z,14.50
2022-12-09T18:31:45.636Z,16.20
2022-12-09T18:34:12.581Z,16.93
2022-12-09T18:36:39.235Z,15.70
2022-12-09T18:39:05.966Z,16.03
2022-12-09T18:41:33.222Z,15.20
2022-12-09T18:44:07.320Z,14.60
2022-12-09T18:46:39.326Z,15.23
2022-12-09T18:49:21.545Z,16.47
2022-12-09T18:51:50.067Z,16.50
2022-12-09T18:54:19.804Z,18.10
2022-12-09T18:56:46.854Z,16.00
2022-12-09T18:59:13.671Z,13.50
2022-12-09T19:01:42.839Z,14.43
2022-12-09T19:04:18.626Z,10.23
2022-12-09T19:06:47.726Z,12.47
2022-12-09T19:09:17.501Z,12.00
2022-12-09T19:11:46.066Z,12.67
2022-12-09T19:14:14.148Z,12.93
2022-12-09T19:16:41.111Z,13.50
2022-12-09T19:19:10.497Z,14.37
2022-12-09T19:21:37.667Z,14.07
2022-12-09T19:24:04.932Z,16.13
2022-12-09T19:26:33.872Z,13.73
2022-12-09T19:29:03.682Z,15.80
2022-12-09T19:31:33.341Z,15.30
2022-12-09T19:34:02.417Z,13.93
2022-12-09T19:36:30.567Z,14.13
2022-12-09T19:39:01.439Z,16.70
2022-12-09T19:41:28.073Z,15.33
2022-12-09T19:43:55.870Z,14.27
2022-12-09T19:46:23.259Z,14.93
2022-12-09T19:48:49.995Z,13.47
2022-12-09T19:51:19.105Z,14.27
2022-12-09T19:53:46.500Z,14.17
2022-12-09T19:56:18.309Z,14.17
2022-12-09T19:58:45.906Z,15.43
2022-12-09T20:01:25.278Z,14.73
2022-12-09T20:04:08.814Z,15.07
2022-12-09T20:06:46.804Z,12.83
2022-12-09T20:09:17.472Z,14.73
2022-12-09T20:11:44.226Z,15.03
2022-12-09T20:14:13.099Z,12.73
2022-12-09T20:16:40.091Z,13.03
2022-12-09T20:19:07.374Z,12.90
2022-12-09T20:21:35.190Z,13.43
2022-12-09T20:24:02.720Z,13.03
2022-12-09T20:26:32.086Z,13.73
2022-12-09T20:29:02.439Z,14.83
2022-12-09T20:31:31.538Z,13.43
2022-12-09T20:34:04.507Z,12.90
2022-12-09T20:36:33.012Z,12.67
2022-12-09T20:39:02.210Z,13.23
2022-12-09T20:41:29.623Z,12.07
2022-12-09T20:43:58.716Z,15.93
2022-12-09T20:46:28.578Z,14.67
2022-12-09T20:48:56.174Z,13.20
2022-12-09T20:51:26.546Z,14.53
2022-12-09T20:53:54.561Z,13.57
2022-12-09T20:56:22.310Z,14.00
2022-12-09T20:58:51.076Z,15.23
2022-12-09T21:01:23.489Z,15.13
2022-12-09T21:03:50.932Z,14.33
2022-12-09T21:06:21.011Z,15.27
2022-12-09T21:08:47.736Z,14.77
2022-12-09T21:11:22.716Z,12.57
2022-12-09T21:13:51.939Z,13.63
2022-12-09T21:16:25.358Z,13.20
2022-12-09T21:18:54.314Z,13.37
2022-12-09T21:21:23.240Z,13.93
2022-12-09T21:23:54.036Z,16.07
2022-12-09T21:26:23.443Z,14.50
2022-12-09T21:28:51.199Z,13.53
2022-12-09T21:31:23.846Z,12.83
2022-12-09T21:33:52.346Z,16.40
2022-12-09T21:36:21.543Z,13.67
2022-12-09T21:38:48.174Z,15.00
2022-12-09T21:41:18.517Z,13.67
2022-12-09T21:43:45.663Z,15.37
2022-12-09T21:46:15.624Z,12.40
2022-12-09T21:48:42.346Z,14.47
2022-12-09T21:51:11.303Z,15.23
2022-12-09T21:53:38.170Z,12.20
2022-12-09T21:56:07.065Z,14.43
2022-12-09T21:58:34.054Z,14.47
2022-12-09T22:01:07.418Z,14.37
2022-12-09T22:03:34.008Z,13.87
2022-12-09T22:06:00.860Z,13.37
2022-12-09T22:08:27.830Z,13.10
2022-12-09T22:10:54.421Z,14.57
2022-12-09T22:13:22.624Z,15.10
2022-12-09T22:15:50.515Z,15.10
2022-12-09T22:18:17.618Z,15.00
2022-12-09T22:21:15.883Z,16.93
2022-12-09T22:23:30.883Z,13.83
2022-12-09T22:25:57.414Z,17.57
2022-12-09T22:28:23.990Z,11.67
2022-12-09T22:30:50.627Z,15.80
2022-12-09T22:33:17.207Z,13.33
2022-12-09T22:35:43.775Z,13.53
2022-12-09T22:38:14.441Z,14.60
2022-12-09T22:40:41.790Z,15.07
2022-12-09T22:43:08.429Z,13.03
2022-12-09T22:45:35.894Z,13.70
2022-12-09T22:48:02.758Z,13.50
2022-12-09T22:50:29.398Z,13.83
2022-12-09T22:52:56.119Z,12.07
2022-12-09T22:55:22.915Z,14.23
2022-12-09T22:57:49.744Z,15.70
2022-12-09T23:00:17.475Z,13.90
2022-12-09T23:02:44.134Z,14.67
2022-12-09T23:05:10.779Z,14.50
2022-12-09T23:07:37.373Z,16.57
2022-12-09T23:10:04.637Z,13.17
2022-12-09T23:12:31.180Z,16.30
2022-12-09T23:14:57.773Z,15.17
2022-12-09T23:17:24.316Z,14.43
2022-12-09T23:19:50.974Z,14.73
2022-12-09T23:22:17.513Z,14.33
2022-12-09T23:24:44.123Z,13.50
2022-12-09T23:27:10.699Z,13.00
2022-12-09T23:29:38.247Z,14.13
2022-12-09T23:32:04.906Z,15.87
2022-12-09T23:34:31.455Z,14.50
2022-12-09T23:36:58.466Z,13.80
2022-12-09T23:39:25.042Z,14.37
2022-12-09T23:41:51.577Z,15.33
2022-12-09T23:44:19.239Z,14.67
2022-12-09T23:46:46.271Z,16.53
2022-12-09T23:49:12.953Z,14.93
2022-12-09T23:51:43.645Z,14.47
2022-12-09T23:54:11.780Z,14.77
2022-12-09T23:56:39.888Z,16.73
2022-12-09T23:59:08.605Z,15.40
